sensor_id;sensor_type;location;lat;lon;timestamp;temperature;humidity
69776;DHT22;57049;51.450;-2.516;2022-09-20T00:01:02;13.40;88.51
69776;DHT22;57049;51.450;-2.516;2022-09-20T00:03:28;13.39;87.88
69776;DHT22;57049;51.450;-2.516;2022-09-20T00:05:53;13.36;89.03
69776;DHT22;57049;51.450;-2.516;2022-09-20T00:08:19;13.36;88.92
69776;DHT22;57049;51.450;-2.516;2022-09-20T00:10:44;13.37;88.91
69776;DHT22;57049;51.450;-2.516;2022-09-20T00:13:12;13.39;88.38
69776;DHT22;57049;51.450;-2.516;2022-09-20T00:15:42;13.37;88.09
69776;DHT22;57049;51.450;-2.516;2022-09-20T00:18:09;13.39;87.89
69776;DHT22;57049;51.450;-2.516;2022-09-20T00:20:34;13.39;88.08
69776;DHT22;57049;51.450;-2.516;2022-09-20T00:22:59;13.36;88.27
69776;DHT22;57049;51.450;-2.516;2022-09-20T00:25:25;13.39;88.38
69776;DHT22;57049;51.450;-2.516;2022-09-20T00:27:50;13.31;88.58
69776;DHT22;57049;51.450;-2.516;2022-09-20T00:30:16;13.33;88.63
69776;DHT22;57049;51.450;-2.516;2022-09-20T00:32:41;13.30;88.42
69776;DHT22;57049;51.450;-2.516;2022-09-20T00:35:08;13.34;88.65
69776;DHT22;57049;51.450;-2.516;2022-09-20T00:37:39;13.31;88.75
69776;DHT22;57049;51.450;-2.516;2022-09-20T00:40:08;13.34;89.12
69776;DHT22;57049;51.450;-2.516;2022-09-20T00:42:34;13.33;89.06
69776;DHT22;57049;51.450;-2.516;2022-09-20T00:45:09;13.31;88.91
69776;DHT22;57049;51.450;-2.516;2022-09-20T00:47:45;13.31;88.71
69776;DHT22;57049;51.450;-2.516;2022-09-20T00:52:38;13.30;88.65
69776;DHT22;57049;51.450;-2.516;2022-09-20T00:55:08;13.26;89.07
69776;DHT22;57049;51.450;-2.516;2022-09-20T00:57:34;13.23;89.11
69776;DHT22;57049;51.450;-2.516;2022-09-20T01:00:07;13.21;88.79
69776;DHT22;57049;51.450;-2.516;2022-09-20T01:02:34;13.19;89.09
69776;DHT22;57049;51.450;-2.516;2022-09-20T01:05:01;13.14;89.30
69776;DHT22;57049;51.450;-2.516;2022-09-20T01:07:27;13.17;89.36
69776;DHT22;57049;51.450;-2.516;2022-09-20T01:09:54;13.19;89.31
69776;DHT22;57049;51.450;-2.516;2022-09-20T01:12:22;13.21;89.54
69776;DHT22;57049;51.450;-2.516;2022-09-20T01:14:50;13.21;89.35
69776;DHT22;57049;51.450;-2.516;2022-09-20T01:17:17;13.20;89.33
69776;DHT22;57049;51.450;-2.516;2022-09-20T01:20:07;13.17;89.14
69776;DHT22;57049;51.450;-2.516;2022-09-20T01:28:30;13.19;89.45
69776;DHT22;57049;51.450;-2.516;2022-09-20T01:33:53;13.19;89.46
69776;DHT22;57049;51.450;-2.516;2022-09-20T01:36:29;13.17;89.52
69776;DHT22;57049;51.450;-2.516;2022-09-20T01:39:07;13.19;89.55
69776;DHT22;57049;51.450;-2.516;2022-09-20T01:41:42;13.21;89.36
69776;DHT22;57049;51.450;-2.516;2022-09-20T01:46:41;13.19;89.60
69776;DHT22;57049;51.450;-2.516;2022-09-20T01:49:44;13.19;89.47
69776;DHT22;57049;51.450;-2.516;2022-09-20T02:09:43;13.17;89.59
69776;DHT22;57049;51.450;-2.516;2022-09-20T02:17:59;13.19;89.97
69776;DHT22;57049;51.450;-2.516;2022-09-20T02:20:46;13.16;90.15
69776;DHT22;57049;51.450;-2.516;2022-09-20T02:26:35;13.11;89.57
69776;DHT22;57049;51.450;-2.516;2022-09-20T02:29:19;13.09;89.99
69776;DHT22;57049;51.450;-2.516;2022-09-20T02:39:35;12.99;90.17
69776;DHT22;57049;51.450;-2.516;2022-09-20T02:42:17;13.00;90.28
69776;DHT22;57049;51.450;-2.516;2022-09-20T02:45:09;13.02;90.12
69776;DHT22;57049;51.450;-2.516;2022-09-20T02:47:47;13.02;89.94
69776;DHT22;57049;51.450;-2.516;2022-09-20T02:55:51;12.99;90.47
69776;DHT22;57049;51.450;-2.516;2022-09-20T03:04:07;12.89;90.27
69776;DHT22;57049;51.450;-2.516;2022-09-20T03:06:46;12.85;90.53
69776;DHT22;57049;51.450;-2.516;2022-09-20T03:14:59;12.72;90.84
69776;DHT22;57049;51.450;-2.516;2022-09-20T03:17:51;12.66;90.91
69776;DHT22;57049;51.450;-2.516;2022-09-20T03:21:03;12.63;90.94
69776;DHT22;57049;51.450;-2.516;2022-09-20T03:23:35;12.55;91.24
69776;DHT22;57049;51.450;-2.516;2022-09-20T03:26:15;12.45;91.40
69776;DHT22;57049;51.450;-2.516;2022-09-20T03:28:56;12.37;91.41
69776;DHT22;57049;51.450;-2.516;2022-09-20T03:34:41;12.05;92.26
69776;DHT22;57049;51.450;-2.516;2022-09-20T03:41:42;11.86;93.14
69776;DHT22;57049;51.450;-2.516;2022-09-20T03:49:14;11.62;94.02
69776;DHT22;57049;51.450;-2.516;2022-09-20T04:03:21;11.19;95.22
69776;DHT22;57049;51.450;-2.516;2022-09-20T04:11:24;11.05;95.73
69776;DHT22;57049;51.450;-2.516;2022-09-20T04:17:10;10.95;95.67
69776;DHT22;57049;51.450;-2.516;2022-09-20T04:22:28;10.82;96.04
69776;DHT22;57049;51.450;-2.516;2022-09-20T04:25:12;10.78;96.18
69776;DHT22;57049;51.450;-2.516;2022-09-20T04:27:46;10.78;96.40
69776;DHT22;57049;51.450;-2.516;2022-09-20T04:30:19;10.74;96.34
69776;DHT22;57049;51.450;-2.516;2022-09-20T04:32:50;10.69;96.35
69776;DHT22;57049;51.450;-2.516;2022-09-20T04:38:17;10.61;96.84
69776;DHT22;57049;51.450;-2.516;2022-09-20T04:52:37;10.45;97.04
69776;DHT22;57049;51.450;-2.516;2022-09-20T05:20:36;10.24;97.52
69776;DHT22;57049;51.450;-2.516;2022-09-20T05:26:18;10.17;97.76
69776;DHT22;57049;51.450;-2.516;2022-09-20T05:28:58;10.17;97.47
69776;DHT22;57049;51.450;-2.516;2022-09-20T05:40:02;10.03;96.74
69776;DHT22;57049;51.450;-2.516;2022-09-20T05:42:38;10.06;96.96
69776;DHT22;57049;51.450;-2.516;2022-09-20T05:45:44;10.03;97.15
69776;DHT22;57049;51.450;-2.516;2022-09-20T05:48:15;10.09;97.39
69776;DHT22;57049;51.450;-2.516;2022-09-20T05:50:53;10.10;97.46
69776;DHT22;57049;51.450;-2.516;2022-09-20T05:59:33;10.23;97.59
69776;DHT22;57049;51.450;-2.516;2022-09-20T06:02:31;10.34;97.93
69776;DHT22;57049;51.450;-2.516;2022-09-20T06:05:10;10.43;97.69
69776;DHT22;57049;51.450;-2.516;2022-09-20T06:10:37;10.47;97.16
69776;DHT22;57049;51.450;-2.516;2022-09-20T06:13:54;10.55;97.66
69776;DHT22;57049;51.450;-2.516;2022-09-20T06:16:04;10.64;96.87
69776;DHT22;57049;51.450;-2.516;2022-09-20T06:23:33;10.74;96.38
69776;DHT22;57049;51.450;-2.516;2022-09-20T06:26:12;10.84;96.15
69776;DHT22;57049;51.450;-2.516;2022-09-20T06:28:41;10.88;95.98
69776;DHT22;57049;51.450;-2.516;2022-09-20T06:31:10;10.96;95.95
69776;DHT22;57049;51.450;-2.516;2022-09-20T06:33:42;11.05;95.46
69776;DHT22;57049;51.450;-2.516;2022-09-20T06:36:22;11.19;95.38
69776;DHT22;57049;51.450;-2.516;2022-09-20T06:42:18;11.40;94.70
69776;DHT22;57049;51.450;-2.516;2022-09-20T06:44:45;11.54;94.64
69776;DHT22;57049;51.450;-2.516;2022-09-20T06:47:12;11.64;94.34
69776;DHT22;57049;51.450;-2.516;2022-09-20T06:49:38;11.80;93.76
69776;DHT22;57049;51.450;-2.516;2022-09-20T06:52:13;12.02;93.53
69776;DHT22;57049;51.450;-2.516;2022-09-20T06:54:47;12.20;93.33
69776;DHT22;57049;51.450;-2.516;2022-09-20T06:57:18;12.46;92.53
69776;DHT22;57049;51.450;-2.516;2022-09-20T06:59:46;12.72;91.84
69776;DHT22;57049;51.450;-2.516;2022-09-20T07:02:11;12.92;91.23
69776;DHT22;57049;51.450;-2.516;2022-09-20T07:04:37;13.03;90.68
69776;DHT22;57049;51.450;-2.516;2022-09-20T07:07:04;13.14;90.43
69776;DHT22;57049;51.450;-2.516;2022-09-20T07:09:30;13.27;90.02
69776;DHT22;57049;51.450;-2.516;2022-09-20T07:11:56;13.33;89.48
69776;DHT22;57049;51.450;-2.516;2022-09-20T07:14:24;13.40;89.44
69776;DHT22;57049;51.450;-2.516;2022-09-20T07:16:51;13.47;88.76
69776;DHT22;57049;51.450;-2.516;2022-09-20T07:19:16;13.43;88.68
69776;DHT22;57049;51.450;-2.516;2022-09-20T07:21:42;13.47;88.91
69776;DHT22;57049;51.450;-2.516;2022-09-20T07:24:07;13.55;88.63
69776;DHT22;57049;51.450;-2.516;2022-09-20T07:26:33;13.53;88.71
69776;DHT22;57049;51.450;-2.516;2022-09-20T07:28:59;13.57;88.52
69776;DHT22;57049;51.450;-2.516;2022-09-20T07:31:27;13.50;87.84
69776;DHT22;57049;51.450;-2.516;2022-09-20T07:34:11;13.54;87.60
69776;DHT22;57049;51.450;-2.516;2022-09-20T07:36:37;13.57;88.00
69776;DHT22;57049;51.450;-2.516;2022-09-20T07:39:02;13.60;88.09
69776;DHT22;57049;51.450;-2.516;2022-09-20T07:41:28;13.55;87.62
69776;DHT22;57049;51.450;-2.516;2022-09-20T07:43:56;13.58;88.15
69776;DHT22;57049;51.450;-2.516;2022-09-20T07:46:41;13.65;88.38
69776;DHT22;57049;51.450;-2.516;2022-09-20T07:49:18;13.72;88.18
69776;DHT22;57049;51.450;-2.516;2022-09-20T07:51:44;13.70;87.47
69776;DHT22;57049;51.450;-2.516;2022-09-20T07:54:10;13.82;88.06
69776;DHT22;57049;51.450;-2.516;2022-09-20T07:56:36;13.78;87.53
69776;DHT22;57049;51.450;-2.516;2022-09-20T07:59:02;13.71;87.40
69776;DHT22;57049;51.450;-2.516;2022-09-20T08:01:27;13.75;87.19
69776;DHT22;57049;51.450;-2.516;2022-09-20T08:03:53;13.71;86.95
69776;DHT22;57049;51.450;-2.516;2022-09-20T08:06:19;13.72;86.92
69776;DHT22;57049;51.450;-2.516;2022-09-20T08:08:46;13.78;86.87
69776;DHT22;57049;51.450;-2.516;2022-09-20T08:11:24;13.81;87.05
69776;DHT22;57049;51.450;-2.516;2022-09-20T08:13:54;13.88;86.84
69776;DHT22;57049;51.450;-2.516;2022-09-20T08:16:21;13.97;86.45
69776;DHT22;57049;51.450;-2.516;2022-09-20T08:18:49;14.09;86.26
69776;DHT22;57049;51.450;-2.516;2022-09-20T08:21:16;14.25;85.91
69776;DHT22;57049;51.450;-2.516;2022-09-20T08:23:44;14.44;85.23
69776;DHT22;57049;51.450;-2.516;2022-09-20T08:26:13;14.63;85.50
69776;DHT22;57049;51.450;-2.516;2022-09-20T08:28:40;14.90;84.01
69776;DHT22;57049;51.450;-2.516;2022-09-20T08:31:08;15.12;82.94
69776;DHT22;57049;51.450;-2.516;2022-09-20T08:33:35;15.48;83.34
69776;DHT22;57049;51.450;-2.516;2022-09-20T08:36:03;15.73;81.93
69776;DHT22;57049;51.450;-2.516;2022-09-20T08:38:30;16.02;79.66
69776;DHT22;57049;51.450;-2.516;2022-09-20T08:41:09;16.00;79.68
69776;DHT22;57049;51.450;-2.516;2022-09-20T08:44:00;16.16;79.98
69776;DHT22;57049;51.450;-2.516;2022-09-20T08:46:38;16.34;78.87
69776;DHT22;57049;51.450;-2.516;2022-09-20T08:49:06;16.40;79.11
69776;DHT22;57049;51.450;-2.516;2022-09-20T08:51:37;16.50;79.27
69776;DHT22;57049;51.450;-2.516;2022-09-20T08:54:05;16.61;78.49
69776;DHT22;57049;51.450;-2.516;2022-09-20T08:56:34;16.41;77.37
69776;DHT22;57049;51.450;-2.516;2022-09-20T08:59:01;16.43;78.73
69776;DHT22;57049;51.450;-2.516;2022-09-20T09:01:28;16.54;77.92
69776;DHT22;57049;51.450;-2.516;2022-09-20T09:06:44;16.38;76.42
69776;DHT22;57049;51.450;-2.516;2022-09-20T09:09:22;16.43;77.61
69776;DHT22;57049;51.450;-2.516;2022-09-20T09:11:50;16.61;78.52
69776;DHT22;57049;51.450;-2.516;2022-09-20T09:14:22;16.61;77.22
69776;DHT22;57049;51.450;-2.516;2022-09-20T09:17:12;16.74;77.31
69776;DHT22;57049;51.450;-2.516;2022-09-20T09:22:21;16.56;75.97
69776;DHT22;57049;51.450;-2.516;2022-09-20T09:27:48;16.58;75.81
69776;DHT22;57049;51.450;-2.516;2022-09-20T09:30:42;16.67;76.71
69776;DHT22;57049;51.450;-2.516;2022-09-20T09:33:26;16.78;75.63
69776;DHT22;57049;51.450;-2.516;2022-09-20T09:36:05;16.91;75.54
69776;DHT22;57049;51.450;-2.516;2022-09-20T09:38:37;16.96;74.65
69776;DHT22;57049;51.450;-2.516;2022-09-20T09:41:05;17.02;74.48
69776;DHT22;57049;51.450;-2.516;2022-09-20T09:43:35;17.25;74.98
69776;DHT22;57049;51.450;-2.516;2022-09-20T09:46:20;17.30;71.36
69776;DHT22;57049;51.450;-2.516;2022-09-20T09:49:12;17.28;70.97
69776;DHT22;57049;51.450;-2.516;2022-09-20T09:51:35;17.19;70.52
69776;DHT22;57049;51.450;-2.516;2022-09-20T09:54:02;17.50;71.94
69776;DHT22;57049;51.450;-2.516;2022-09-20T10:04:36;18.58;68.49
69776;DHT22;57049;51.450;-2.516;2022-09-20T10:07:27;18.73;68.33
69776;DHT22;57049;51.450;-2.516;2022-09-20T10:10:08;18.55;67.01
69776;DHT22;57049;51.450;-2.516;2022-09-20T10:13:25;18.73;67.79
69776;DHT22;57049;51.450;-2.516;2022-09-20T10:16:09;18.55;66.23
69776;DHT22;57049;51.450;-2.516;2022-09-20T10:29:45;18.73;64.77
69776;DHT22;57049;51.450;-2.516;2022-09-20T10:46:19;18.86;63.00
69776;DHT22;57049;51.450;-2.516;2022-09-20T10:48:47;18.71;63.50
69776;DHT22;57049;51.450;-2.516;2022-09-20T11:02:13;18.98;57.89
69776;DHT22;57049;51.450;-2.516;2022-09-20T11:07:50;19.16;57.85
69776;DHT22;57049;51.450;-2.516;2022-09-20T11:10:20;19.16;60.02
69776;DHT22;57049;51.450;-2.516;2022-09-20T11:13:00;19.24;61.55
69776;DHT22;57049;51.450;-2.516;2022-09-20T11:15:34;19.23;59.04
69776;DHT22;57049;51.450;-2.516;2022-09-20T11:18:14;18.82;59.72
69776;DHT22;57049;51.450;-2.516;2022-09-20T11:20:55;19.14;59.20
69776;DHT22;57049;51.450;-2.516;2022-09-20T11:26:09;18.93;59.44
69776;DHT22;57049;51.450;-2.516;2022-09-20T11:28:44;19.13;60.84
69776;DHT22;57049;51.450;-2.516;2022-09-20T11:33:44;19.22;62.75
69776;DHT22;57049;51.450;-2.516;2022-09-20T11:36:26;19.65;60.83
69776;DHT22;57049;51.450;-2.516;2022-09-20T11:38:57;19.56;60.48
69776;DHT22;57049;51.450;-2.516;2022-09-20T11:41:28;19.57;59.94
69776;DHT22;57049;51.450;-2.516;2022-09-20T11:44:03;19.43;58.03
69776;DHT22;57049;51.450;-2.516;2022-09-20T11:46:44;19.13;58.49
69776;DHT22;57049;51.450;-2.516;2022-09-20T11:57:05;18.93;59.57
69776;DHT22;57049;51.450;-2.516;2022-09-20T11:59:35;18.95;59.31
69776;DHT22;57049;51.450;-2.516;2022-09-20T12:02:04;19.07;59.89
69776;DHT22;57049;51.450;-2.516;2022-09-20T12:04:42;19.26;58.62
69776;DHT22;57049;51.450;-2.516;2022-09-20T12:07:26;19.46;59.20
69776;DHT22;57049;51.450;-2.516;2022-09-20T12:12:41;19.79;59.21
69776;DHT22;57049;51.450;-2.516;2022-09-20T12:28:42;20.11;57.10
69776;DHT22;57049;51.450;-2.516;2022-09-20T12:39:34;19.87;54.62
69776;DHT22;57049;51.450;-2.516;2022-09-20T12:44:37;20.12;53.23
69776;DHT22;57049;51.450;-2.516;2022-09-20T12:47:14;20.15;53.56
69776;DHT22;57049;51.450;-2.516;2022-09-20T13:09:03;21.75;45.88
69776;DHT22;57049;51.450;-2.516;2022-09-20T13:11:44;22.01;46.69
69776;DHT22;57049;51.450;-2.516;2022-09-20T13:14:27;22.26;45.77
69776;DHT22;57049;51.450;-2.516;2022-09-20T13:19:26;22.29;45.00
69776;DHT22;57049;51.450;-2.516;2022-09-20T13:22:04;22.54;45.88
69776;DHT22;57049;51.450;-2.516;2022-09-20T13:24:39;22.91;46.00
69776;DHT22;57049;51.450;-2.516;2022-09-20T13:27:27;22.91;46.00
69776;DHT22;57049;51.450;-2.516;2022-09-20T13:29:54;21.93;48.99
69776;DHT22;57049;51.450;-2.516;2022-09-20T13:32:30;21.54;47.35
69776;DHT22;57049;51.450;-2.516;2022-09-20T13:37:36;21.30;50.09
69776;DHT22;57049;51.450;-2.516;2022-09-20T13:40:03;20.94;49.23
69776;DHT22;57049;51.450;-2.516;2022-09-20T13:42:31;21.03;49.67
69776;DHT22;57049;51.450;-2.516;2022-09-20T13:45:01;21.17;52.47
69776;DHT22;57049;51.450;-2.516;2022-09-20T13:47:30;21.27;51.28
69776;DHT22;57049;51.450;-2.516;2022-09-20T13:52:57;21.28;52.38
69776;DHT22;57049;51.450;-2.516;2022-09-20T13:55:31;21.17;51.89
69776;DHT22;57049;51.450;-2.516;2022-09-20T13:58:00;21.18;52.49
69776;DHT22;57049;51.450;-2.516;2022-09-20T14:00:27;21.23;53.28
69776;DHT22;57049;51.450;-2.516;2022-09-20T14:02:54;21.03;51.60
69776;DHT22;57049;51.450;-2.516;2022-09-20T14:05:22;21.04;52.51
69776;DHT22;57049;51.450;-2.516;2022-09-20T14:07:49;20.93;51.70
69776;DHT22;57049;51.450;-2.516;2022-09-20T14:10:33;21.01;50.24
69776;DHT22;57049;51.450;-2.516;2022-09-20T14:13:04;21.48;50.74
69776;DHT22;57049;51.450;-2.516;2022-09-20T14:15:42;21.57;48.76
69776;DHT22;57049;51.450;-2.516;2022-09-20T14:18:12;21.54;49.91
69776;DHT22;57049;51.450;-2.516;2022-09-20T14:20:41;21.08;50.24
69776;DHT22;57049;51.450;-2.516;2022-09-20T14:23:23;21.07;50.48
69776;DHT22;57049;51.450;-2.516;2022-09-20T14:28:41;20.72;53.08
69776;DHT22;57049;51.450;-2.516;2022-09-20T14:31:35;20.62;53.05
69776;DHT22;57049;51.450;-2.516;2022-09-20T14:34:02;20.67;52.37
69776;DHT22;57049;51.450;-2.516;2022-09-20T14:36:29;20.46;51.91
69776;DHT22;57049;51.450;-2.516;2022-09-20T14:39:00;20.45;50.75
69776;DHT22;57049;51.450;-2.516;2022-09-20T14:41:35;20.42;49.60
69776;DHT22;57049;51.450;-2.516;2022-09-20T14:44:03;20.39;49.82
69776;DHT22;57049;51.450;-2.516;2022-09-20T14:46:34;20.79;52.40
69776;DHT22;57049;51.450;-2.516;2022-09-20T14:51:51;20.48;51.72
69776;DHT22;57049;51.450;-2.516;2022-09-20T14:56:49;20.42;54.87
69776;DHT22;57049;51.450;-2.516;2022-09-20T15:04:53;21.07;54.52
69776;DHT22;57049;51.450;-2.516;2022-09-20T15:07:20;21.28;51.76
69776;DHT22;57049;51.450;-2.516;2022-09-20T15:09:45;21.51;53.75
69776;DHT22;57049;51.450;-2.516;2022-09-20T15:12:13;21.69;51.88
69776;DHT22;57049;51.450;-2.516;2022-09-20T15:14:39;21.40;52.22
69776;DHT22;57049;51.450;-2.516;2022-09-20T15:17:06;21.20;54.43
69776;DHT22;57049;51.450;-2.516;2022-09-20T15:19:33;21.21;53.34
69776;DHT22;57049;51.450;-2.516;2022-09-20T15:21:59;21.14;53.79
69776;DHT22;57049;51.450;-2.516;2022-09-20T15:24:25;20.84;54.95
69776;DHT22;57049;51.450;-2.516;2022-09-20T15:26:50;20.55;55.28
69776;DHT22;57049;51.450;-2.516;2022-09-20T15:29:17;20.30;56.61
69776;DHT22;57049;51.450;-2.516;2022-09-20T15:31:43;20.29;56.06
69776;DHT22;57049;51.450;-2.516;2022-09-20T15:34:10;20.04;56.38
69776;DHT22;57049;51.450;-2.516;2022-09-20T15:36:38;19.84;56.74
69776;DHT22;57049;51.450;-2.516;2022-09-20T15:39:04;19.81;57.47
69776;DHT22;57049;51.450;-2.516;2022-09-20T15:41:30;19.74;57.67
69776;DHT22;57049;51.450;-2.516;2022-09-20T15:43:57;19.71;57.33
69776;DHT22;57049;51.450;-2.516;2022-09-20T15:46:23;19.56;58.21
69776;DHT22;57049;51.450;-2.516;2022-09-20T15:48:52;19.33;58.59
69776;DHT22;57049;51.450;-2.516;2022-09-20T15:51:18;19.26;58.61
69776;DHT22;57049;51.450;-2.516;2022-09-20T15:53:58;19.19;58.46
69776;DHT22;57049;51.450;-2.516;2022-09-20T15:56:29;19.27;58.43
69776;DHT22;57049;51.450;-2.516;2022-09-20T15:58:58;19.23;59.53
69776;DHT22;57049;51.450;-2.516;2022-09-20T16:01:27;19.24;60.13
69776;DHT22;57049;51.450;-2.516;2022-09-20T16:03:54;19.13;60.31
69776;DHT22;57049;51.450;-2.516;2022-09-20T16:06:20;19.16;60.29
69776;DHT22;57049;51.450;-2.516;2022-09-20T16:08:46;19.13;61.59
69776;DHT22;57049;51.450;-2.516;2022-09-20T16:11:13;19.24;60.63
69776;DHT22;57049;51.450;-2.516;2022-09-20T16:13:39;19.24;60.67
69776;DHT22;57049;51.450;-2.516;2022-09-20T16:16:06;19.07;60.92
69776;DHT22;57049;51.450;-2.516;2022-09-20T16:18:34;19.02;61.00
69776;DHT22;57049;51.450;-2.516;2022-09-20T16:21:18;18.98;61.00
69776;DHT22;57049;51.450;-2.516;2022-09-20T16:23:49;19.03;59.82
69776;DHT22;57049;51.450;-2.516;2022-09-20T16:26:15;18.98;59.83
69776;DHT22;57049;51.450;-2.516;2022-09-20T16:28:42;18.93;61.32
69776;DHT22;57049;51.450;-2.516;2022-09-20T16:31:30;18.76;60.59
69776;DHT22;57049;51.450;-2.516;2022-09-20T16:33:57;18.65;61.40
69776;DHT22;57049;51.450;-2.516;2022-09-20T16:36:24;18.66;61.44
69776;DHT22;57049;51.450;-2.516;2022-09-20T16:38:50;18.59;60.76
69776;DHT22;57049;51.450;-2.516;2022-09-20T16:41:16;18.55;61.27
69776;DHT22;57049;51.450;-2.516;2022-09-20T16:43:41;18.52;59.93
69776;DHT22;57049;51.450;-2.516;2022-09-20T16:46:07;18.55;59.43
69776;DHT22;57049;51.450;-2.516;2022-09-20T16:48:33;18.47;58.78
69776;DHT22;57049;51.450;-2.516;2022-09-20T16:51:00;18.51;59.93
69776;DHT22;57049;51.450;-2.516;2022-09-20T16:53:26;18.49;59.29
69776;DHT22;57049;51.450;-2.516;2022-09-20T16:55:52;18.49;59.57
69776;DHT22;57049;51.450;-2.516;2022-09-20T16:58:27;18.49;58.39
69776;DHT22;57049;51.450;-2.516;2022-09-20T17:01:01;18.61;59.59
69776;DHT22;57049;51.450;-2.516;2022-09-20T17:03:27;18.59;58.00
69776;DHT22;57049;51.450;-2.516;2022-09-20T17:05:59;18.71;59.11
69776;DHT22;57049;51.450;-2.516;2022-09-20T17:08:25;18.75;60.44
69776;DHT22;57049;51.450;-2.516;2022-09-20T17:10:51;18.93;59.71
69776;DHT22;57049;51.450;-2.516;2022-09-20T17:13:18;18.89;59.68
69776;DHT22;57049;51.450;-2.516;2022-09-20T17:15:44;18.91;60.11
69776;DHT22;57049;51.450;-2.516;2022-09-20T17:18:09;18.91;60.50
69776;DHT22;57049;51.450;-2.516;2022-09-20T17:20:35;18.91;59.74
69776;DHT22;57049;51.450;-2.516;2022-09-20T17:23:00;18.99;58.37
69776;DHT22;57049;51.450;-2.516;2022-09-20T17:25:26;18.92;59.41
69776;DHT22;57049;51.450;-2.516;2022-09-20T17:27:54;18.99;58.85
69776;DHT22;57049;51.450;-2.516;2022-09-20T17:30:20;18.89;58.97
69776;DHT22;57049;51.450;-2.516;2022-09-20T17:32:46;18.85;59.91
69776;DHT22;57049;51.450;-2.516;2022-09-20T17:35:14;18.89;58.46
69776;DHT22;57049;51.450;-2.516;2022-09-20T17:37:40;18.83;58.92
69776;DHT22;57049;51.450;-2.516;2022-09-20T17:40:06;18.71;59.76
69776;DHT22;57049;51.450;-2.516;2022-09-20T17:42:32;18.68;57.71
69776;DHT22;57049;51.450;-2.516;2022-09-20T17:44:58;18.65;58.12
69776;DHT22;57049;51.450;-2.516;2022-09-20T17:47:25;18.64;56.36
69776;DHT22;57049;51.450;-2.516;2022-09-20T17:49:51;18.52;57.63
69776;DHT22;57049;51.450;-2.516;2022-09-20T17:52:18;18.42;59.48
69776;DHT22;57049;51.450;-2.516;2022-09-20T17:54:44;18.34;58.56
69776;DHT22;57049;51.450;-2.516;2022-09-20T17:57:09;18.24;58.45
69776;DHT22;57049;51.450;-2.516;2022-09-20T17:59:35;18.18;58.99
69776;DHT22;57049;51.450;-2.516;2022-09-20T18:02:00;18.10;59.62
69776;DHT22;57049;51.450;-2.516;2022-09-20T18:04:26;17.98;59.68
69776;DHT22;57049;51.450;-2.516;2022-09-20T18:06:53;17.86;59.77
69776;DHT22;57049;51.450;-2.516;2022-09-20T18:09:21;17.77;59.71
69776;DHT22;57049;51.450;-2.516;2022-09-20T18:11:49;17.66;60.30
69776;DHT22;57049;51.450;-2.516;2022-09-20T18:14:17;17.57;60.66
69776;DHT22;57049;51.450;-2.516;2022-09-20T18:16:42;17.47;61.05
69776;DHT22;57049;51.450;-2.516;2022-09-20T18:19:11;17.36;61.01
69776;DHT22;57049;51.450;-2.516;2022-09-20T18:21:39;17.23;61.03
69776;DHT22;57049;51.450;-2.516;2022-09-20T18:24:06;17.26;60.50
69776;DHT22;57049;51.450;-2.516;2022-09-20T18:26:33;17.14;60.13
69776;DHT22;57049;51.450;-2.516;2022-09-20T18:29:03;17.01;60.18
69776;DHT22;57049;51.450;-2.516;2022-09-20T18:31:32;16.82;61.09
69776;DHT22;57049;51.450;-2.516;2022-09-20T18:34:00;16.68;62.47
69776;DHT22;57049;51.450;-2.516;2022-09-20T18:36:28;16.54;62.78
69776;DHT22;57049;51.450;-2.516;2022-09-20T18:38:55;16.41;63.71
69776;DHT22;57049;51.450;-2.516;2022-09-20T18:41:23;16.28;63.88
69776;DHT22;57049;51.450;-2.516;2022-09-20T18:43:51;16.18;63.90
69776;DHT22;57049;51.450;-2.516;2022-09-20T18:46:17;16.14;63.39
69776;DHT22;57049;51.450;-2.516;2022-09-20T18:48:53;16.07;63.23
69776;DHT22;57049;51.450;-2.516;2022-09-20T18:51:20;15.99;64.63
69776;DHT22;57049;51.450;-2.516;2022-09-20T18:53:46;15.86;65.10
69776;DHT22;57049;51.450;-2.516;2022-09-20T18:56:33;15.72;65.62
69776;DHT22;57049;51.450;-2.516;2022-09-20T18:59:04;15.54;66.21
69776;DHT22;57049;51.450;-2.516;2022-09-20T19:04:56;15.38;66.67
69776;DHT22;57049;51.450;-2.516;2022-09-20T19:09:54;15.15;67.70
69776;DHT22;57049;51.450;-2.516;2022-09-20T19:17:47;14.87;68.09
69776;DHT22;57049;51.450;-2.516;2022-09-20T19:20:33;14.79;68.77
69776;DHT22;57049;51.450;-2.516;2022-09-20T19:23:02;14.73;68.99
69776;DHT22;57049;51.450;-2.516;2022-09-20T19:25:38;14.77;69.37
69776;DHT22;57049;51.450;-2.516;2022-09-20T19:28:09;14.84;69.64
69776;DHT22;57049;51.450;-2.516;2022-09-20T19:30:35;14.85;69.47
69776;DHT22;57049;51.450;-2.516;2022-09-20T19:33:01;14.88;69.53
69776;DHT22;57049;51.450;-2.516;2022-09-20T19:35:31;14.90;69.36
69776;DHT22;57049;51.450;-2.516;2022-09-20T19:39:09;14.88;69.94
69776;DHT22;57049;51.450;-2.516;2022-09-20T19:49:12;15.08;71.75
69776;DHT22;57049;51.450;-2.516;2022-09-20T19:51:40;15.11;72.17
69776;DHT22;57049;51.450;-2.516;2022-09-20T19:54:09;15.14;72.45
69776;DHT22;57049;51.450;-2.516;2022-09-20T19:59:08;15.18;72.86
69776;DHT22;57049;51.450;-2.516;2022-09-20T20:01:34;15.17;72.99
69776;DHT22;57049;51.450;-2.516;2022-09-20T20:03:59;15.21;73.47
69776;DHT22;57049;51.450;-2.516;2022-09-20T20:09:11;15.23;74.11
69776;DHT22;57049;51.450;-2.516;2022-09-20T20:28:24;15.01;76.43
69776;DHT22;57049;51.450;-2.516;2022-09-20T20:30:50;14.93;76.49
69776;DHT22;57049;51.450;-2.516;2022-09-20T20:33:16;14.87;76.88
69776;DHT22;57049;51.450;-2.516;2022-09-20T20:35:43;14.87;76.76
69776;DHT22;57049;51.450;-2.516;2022-09-20T20:38:16;14.85;76.49
69776;DHT22;57049;51.450;-2.516;2022-09-20T20:40:42;14.88;76.01
69776;DHT22;57049;51.450;-2.516;2022-09-20T20:43:07;14.83;76.09
69776;DHT22;57049;51.450;-2.516;2022-09-20T20:45:34;14.70;76.25
69776;DHT22;57049;51.450;-2.516;2022-09-20T20:47:59;14.66;76.40
69776;DHT22;57049;51.450;-2.516;2022-09-20T20:50:26;14.59;76.53
69776;DHT22;57049;51.450;-2.516;2022-09-20T20:52:55;14.53;76.68
69776;DHT22;57049;51.450;-2.516;2022-09-20T20:55:24;14.40;77.40
69776;DHT22;57049;51.450;-2.516;2022-09-20T20:57:53;14.33;77.53
69776;DHT22;57049;51.450;-2.516;2022-09-20T21:00:26;14.26;77.75
69776;DHT22;57049;51.450;-2.516;2022-09-20T21:02:59;14.18;77.84
69776;DHT22;57049;51.450;-2.516;2022-09-20T21:05:25;14.13;77.60
69776;DHT22;57049;51.450;-2.516;2022-09-20T21:07:52;14.06;77.83
69776;DHT22;57049;51.450;-2.516;2022-09-20T21:10:18;13.98;78.16
69776;DHT22;57049;51.450;-2.516;2022-09-20T21:12:47;13.95;78.13
69776;DHT22;57049;51.450;-2.516;2022-09-20T21:15:15;13.86;78.44
69776;DHT22;57049;51.450;-2.516;2022-09-20T21:17:52;13.88;78.79
69776;DHT22;57049;51.450;-2.516;2022-09-20T21:20:18;13.89;78.83
69776;DHT22;57049;51.450;-2.516;2022-09-20T21:22:45;13.86;78.88
69776;DHT22;57049;51.450;-2.516;2022-09-20T21:25:11;13.81;78.99
69776;DHT22;57049;51.450;-2.516;2022-09-20T21:27:36;13.78;79.32